Time,TemperatureF,DewpointF,PressureIn,WindDirection,WindDirectionDegrees,WindSpeedMPH,WindSpeedGustMPH,Humidity,HourlyPrecipIn,Conditions,Clouds,dailyrainin,SolarRadiationWatts/m^2,SoftwareType,DateUTC
2013-08-18 00:01:00,60.0,37.0,-100.00,ESE,121,1.0,4.0,43,0.00,,,0.00,0.000000,,2013-08-18 06:01:00,
2013-08-18 00:11:00,60.0,37.0,-100.00,ESE,121,1.0,4.0,43,0.00,,,0.00,0.000000,,2013-08-18 06:11:00,
2013-08-18 00:21:00,60.0,37.0,-100.00,ESE,121,1.0,4.0,43,0.00,,,0.00,0.000000,,2013-08-18 06:21:00,
2013-08-18 00:22:00,58.0,37.0,-100.00,East,91,2.0,2.0,45,0.00,,,0.00,0.000000,,2013-08-18 06:22:00,
2013-08-18 00:52:00,58.0,37.0,-100.00,East,91,2.0,2.0,45,0.00,,,0.00,0.000000,,2013-08-18 06:52:00,
2013-08-18 01:01:00,58.0,37.0,-100.00,East,91,2.0,2.0,45,0.00,,,0.00,0.000000,,2013-08-18 07:01:00,
2013-08-18 01:11:00,58.0,37.0,-100.00,East,91,2.0,2.0,45,0.00,,,0.00,0.000000,,2013-08-18 07:11:00,
2013-08-18 01:52:00,57.0,36.0,-100.00,ENE,69,2.0,3.0,46,0.00,,,0.00,0.000000,,2013-08-18 07:52:00,
2013-08-18 02:01:00,57.0,36.0,-100.00,ENE,69,2.0,3.0,46,0.00,,,0.00,0.000000,,2013-08-18 08:01:00,
2013-08-18 02:12:00,57.0,36.0,-100.00,ENE,69,2.0,3.0,46,0.00,,,0.00,0.000000,,2013-08-18 08:12:00,
2013-08-18 02:21:00,57.0,36.0,-100.00,ENE,69,2.0,3.0,46,0.00,,,0.00,0.000000,,2013-08-18 08:21:00,
2013-08-18 02:52:00,55.0,38.0,-100.00,SE,128,2.0,3.0,52,0.00,,,0.00,0.000000,,2013-08-18 08:52:00,
2013-08-18 03:01:00,55.0,38.0,-100.00,SE,128,2.0,3.0,52,0.00,,,0.00,0.000000,,2013-08-18 09:01:00,
2013-08-18 03:11:00,55.0,38.0,-100.00,SE,128,2.0,3.0,52,0.00,,,0.00,0.000000,,2013-08-18 09:11:00,
2013-08-18 03:21:00,55.0,38.0,-100.00,SE,128,2.0,3.0,52,0.00,,,0.00,0.000000,,2013-08-18 09:21:00,
2013-08-18 03:22:00,54.0,37.0,-100.00,ESE,121,2.0,3.0,53,0.00,,,0.00,0.000000,,2013-08-18 09:22:00,
2013-08-18 03:53:00,54.0,37.0,-100.00,ESE,121,2.0,3.0,53,0.00,,,0.00,0.000000,,2013-08-18 09:53:00,
2013-08-18 04:03:00,54.0,37.0,-100.00,ESE,121,2.0,3.0,53,0.00,,,0.00,0.000000,,2013-08-18 10:03:00,
2013-08-18 04:13:00,54.0,37.0,-100.00,ESE,121,2.0,3.0,53,0.00,,,0.00,0.000000,,2013-08-18 10:13:00,
2013-08-18 04:22:00,53.0,38.0,-100.00,ESE,108,1.0,2.0,56,0.00,,,0.00,0.000000,,2013-08-18 10:22:00,
2013-08-18 04:52:00,53.0,38.0,-100.00,ESE,108,1.0,2.0,56,0.00,,,0.00,0.000000,,2013-08-18 10:52:00,
2013-08-18 05:02:00,53.0,38.0,-100.00,ESE,108,1.0,2.0,56,0.00,,,0.00,0.000000,,2013-08-18 11:02:00,
2013-08-18 05:11:00,53.0,38.0,-100.00,ESE,108,1.0,2.0,56,0.00,,,0.00,0.000000,,2013-08-18 11:11:00,
2013-08-18 05:52:00,52.0,37.0,-100.00,ESE,103,1.0,3.0,57,0.00,,,0.00,0.000000,,2013-08-18 11:52:00,
2013-08-18 06:01:00,52.0,37.0,-100.00,ESE,103,1.0,3.0,57,0.00,,,0.00,0.000000,,2013-08-18 12:01:00,
2013-08-18 06:11:00,52.0,37.0,-100.00,ESE,103,1.0,3.0,57,0.00,,,0.00,0.000000,,2013-08-18 12:11:00,
2013-08-18 06:21:00,52.0,37.0,-100.00,ESE,103,1.0,3.0,57,0.00,,,0.00,0.000000,,2013-08-18 12:21:00,
2013-08-18 06:52:00,49.0,38.0,-100.00,ESE,119,2.0,2.0,65,0.00,,,0.00,0.000000,,2013-08-18 12:52:00,
2013-08-18 07:01:00,49.0,38.0,-100.00,ESE,119,2.0,2.0,65,0.00,,,0.00,0.000000,,2013-08-18 13:01:00,
2013-08-18 07:11:00,49.0,38.0,-100.00,ESE,119,2.0,2.0,65,0.00,,,0.00,0.000000,,2013-08-18 13:11:00,
2013-08-18 07:21:00,49.0,38.0,-100.00,ESE,119,2.0,2.0,65,0.00,,,0.00,0.000000,,2013-08-18 13:21:00,
2013-08-18 07:52:00,52.0,39.0,-100.00,ESE,108,1.0,3.0,60,0.00,,,0.00,22.000000,,2013-08-18 13:52:00,
2013-08-18 08:02:00,52.0,39.0,-100.00,ESE,108,1.0,3.0,60,0.00,,,0.00,22.000000,,2013-08-18 14:02:00,
2013-08-18 08:11:00,52.0,39.0,-100.00,ESE,108,1.0,3.0,60,0.00,,,0.00,22.000000,,2013-08-18 14:11:00,
2013-08-18 08:21:00,52.0,39.0,-100.00,ESE,108,1.0,3.0,60,0.00,,,0.00,22.000000,,2013-08-18 14:21:00,
2013-08-18 08:22:00,59.0,39.0,-100.00,ENE,59,2.0,3.0,48,0.00,,,0.00,153.000000,,2013-08-18 14:22:00,
2013-08-18 08:53:00,59.0,39.0,-100.00,ENE,59,2.0,3.0,48,0.00,,,0.00,153.000000,,2013-08-18 14:53:00,
2013-08-18 09:01:00,59.0,39.0,-100.00,ENE,59,2.0,3.0,48,0.00,,,0.00,153.000000,,2013-08-18 15:01:00,
2013-08-18 09:11:00,59.0,39.0,-100.00,ENE,59,2.0,3.0,48,0.00,,,0.00,153.000000,,2013-08-18 15:11:00,
2013-08-18 09:22:00,65.0,40.0,-100.00,WNW,301,2.0,3.0,40,0.00,,,0.00,495.000000,,2013-08-18 15:22:00,
2013-08-18 09:54:00,65.0,40.0,-100.00,WNW,301,2.0,3.0,40,0.00,,,0.00,495.000000,,2013-08-18 15:54:00,
2013-08-18 10:03:00,65.0,40.0,-100.00,WNW,301,2.0,3.0,40,0.00,,,0.00,495.000000,,2013-08-18 16:03:00,
2013-08-18 10:13:00,65.0,40.0,-100.00,WNW,301,2.0,3.0,40,0.00,,,0.00,495.000000,,2013-08-18 16:13:00,
2013-08-18 10:22:00,69.0,39.0,-100.00,NW,308,3.0,5.0,34,0.00,,,0.00,748.000000,,2013-08-18 16:22:00,
2013-08-18 10:52:00,69.0,39.0,-100.00,NW,308,3.0,5.0,34,0.00,,,0.00,748.000000,,2013-08-18 16:52:00,
2013-08-18 11:02:00,69.0,39.0,-100.00,NW,308,3.0,5.0,34,0.00,,,0.00,748.000000,,2013-08-18 17:02:00,
2013-08-18 11:13:00,69.0,39.0,-100.00,NW,308,3.0,5.0,34,0.00,,,0.00,748.000000,,2013-08-18 17:13:00,
2013-08-18 11:52:00,73.0,39.0,-100.00,NW,309,3.0,6.0,29,0.00,,,0.00,917.000000,,2013-08-18 17:52:00,
2013-08-18 12:02:00,73.0,39.0,-100.00,NW,309,3.0,6.0,29,0.00,,,0.00,917.000000,,2013-08-18 18:02:00,
2013-08-18 12:12:00,73.0,39.0,-100.00,NW,309,3.0,6.0,29,0.00,,,0.00,917.000000,,2013-08-18 18:12:00,
2013-08-18 12:21:00,73.0,39.0,-100.00,NW,309,3.0,6.0,29,0.00,,,0.00,917.000000,,2013-08-18 18:21:00,
2013-08-18 12:22:00,76.0,38.0,-100.00,WNW,284,5.0,8.0,25,0.00,,,0.00,1019.000000,,2013-08-18 18:22:00,
2013-08-18 12:52:00,76.0,38.0,-100.00,WNW,284,5.0,8.0,25,0.00,,,0.00,1019.000000,,2013-08-18 18:52:00,
2013-08-18 13:01:00,76.0,38.0,-100.00,WNW,284,5.0,8.0,25,0.00,,,0.00,1019.000000,,2013-08-18 19:01:00,
2013-08-18 13:11:00,76.0,38.0,-100.00,WNW,284,5.0,8.0,25,0.00,,,0.00,1019.000000,,2013-08-18 19:11:00,
2013-08-18 13:22:00,78.0,34.0,-100.00,WNW,294,4.0,9.0,20,0.00,,,0.00,1085.000000,,2013-08-18 19:22:00,
2013-08-18 14:12:00,78.0,34.0,-100.00,WNW,294,4.0,9.0,20,0.00,,,0.00,1085.000000,,2013-08-18 20:12:00,
2013-08-18 14:52:00,67.0,37.0,-100.00,South,170,6.0,13.0,33,0.00,,,0.00,374.000000,,2013-08-18 20:52:00,
2013-08-18 15:01:00,67.0,37.0,-100.00,South,170,6.0,13.0,33,0.00,,,0.00,374.000000,,2013-08-18 21:01:00,
2013-08-18 15:11:00,67.0,37.0,-100.00,South,170,6.0,13.0,33,0.00,,,0.00,374.000000,,2013-08-18 21:11:00,
2013-08-18 15:21:00,67.0,37.0,-100.00,South,170,6.0,13.0,33,0.00,,,0.00,374.000000,,2013-08-18 21:21:00,
2013-08-18 15:22:00,57.0,43.0,-100.00,West,269,6.0,12.0,59,0.03,,,0.03,121.000000,,2013-08-18 21:22:00,
2013-08-18 17:52:00,54.0,49.0,-100.00,SW,236,3.0,9.0,82,-99.99,,,0.06,86.000000,,2013-08-18 23:52:00,
2013-08-18 18:03:00,54.0,49.0,-100.00,SW,236,3.0,9.0,82,-99.99,,,0.06,86.000000,,2013-08-19 00:03:00,
2013-08-18 18:11:00,54.0,49.0,-100.00,SW,236,3.0,9.0,82,-99.99,,,0.06,86.000000,,2013-08-19 00:11:00,
2013-08-18 18:21:00,54.0,49.0,-100.00,SW,236,3.0,9.0,82,-99.99,,,0.06,86.000000,,2013-08-19 00:21:00,
2013-08-18 18:22:00,61.0,46.0,-100.00,ESE,117,2.0,4.0,58,0.00,,,0.06,366.000000,,2013-08-19 00:22:00,
2013-08-18 18:52:00,61.0,46.0,-100.00,ESE,117,2.0,4.0,58,0.00,,,0.06,366.000000,,2013-08-19 00:52:00,
2013-08-18 19:02:00,61.0,46.0,-100.00,ESE,117,2.0,4.0,58,0.00,,,0.06,366.000000,,2013-08-19 01:02:00,
2013-08-18 19:11:00,61.0,46.0,-100.00,ESE,117,2.0,4.0,58,0.00,,,0.06,366.000000,,2013-08-19 01:11:00,
2013-08-18 19:52:00,64.0,44.0,-100.00,SW,235,2.0,4.0,49,0.00,,,0.06,252.000000,,2013-08-19 01:52:00,
2013-08-18 20:06:00,64.0,44.0,-100.00,SW,235,2.0,4.0,49,0.00,,,0.06,252.000000,,2013-08-19 02:06:00,
2013-08-18 20:11:00,64.0,44.0,-100.00,SW,235,2.0,4.0,49,0.00,,,0.06,252.000000,,2013-08-19 02:11:00,
2013-08-18 20:21:00,64.0,44.0,-100.00,SW,235,2.0,4.0,49,0.00,,,0.06,252.000000,,2013-08-19 02:21:00,
2013-08-18 20:52:00,57.0,44.0,-100.00,North,351,1.0,3.0,62,0.00,,,0.06,40.000000,,2013-08-19 02:52:00,
2013-08-18 21:01:00,57.0,44.0,-100.00,North,351,1.0,3.0,62,0.00,,,0.06,40.000000,,2013-08-19 03:01:00,
2013-08-18 21:11:00,57.0,44.0,-100.00,North,351,1.0,3.0,62,0.00,,,0.06,40.000000,,2013-08-19 03:11:00,
2013-08-18 21:21:00,57.0,44.0,-100.00,North,351,1.0,3.0,62,0.00,,,0.06,40.000000,,2013-08-19 03:21:00,
2013-08-18 21:22:00,54.0,46.0,-100.00,SSE,163,2.0,3.0,74,0.00,,,0.06,0.000000,,2013-08-19 03:22:00,
2013-08-18 21:53:00,54.0,46.0,-100.00,SSE,163,2.0,3.0,74,0.00,,,0.06,0.000000,,2013-08-19 03:53:00,
2013-08-18 22:03:00,54.0,46.0,-100.00,SSE,163,2.0,3.0,74,0.00,,,0.06,0.000000,,2013-08-19 04:03:00,
2013-08-18 22:12:00,54.0,46.0,-100.00,SSE,163,2.0,3.0,74,0.00,,,0.06,0.000000,,2013-08-19 04:12:00,
2013-08-18 22:22:00,52.0,44.0,-100.00,ESE,123,2.0,4.0,73,0.00,,,0.06,0.000000,,2013-08-19 04:22:00,
2013-08-18 22:53:00,52.0,44.0,-100.00,ESE,123,2.0,4.0,73,0.00,,,0.06,0.000000,,2013-08-19 04:53:00,
2013-08-18 23:02:00,52.0,44.0,-100.00,ESE,123,2.0,4.0,73,0.00,,,0.06,0.000000,,2013-08-19 05:02:00,
2013-08-18 23:11:00,52.0,44.0,-100.00,ESE,123,2.0,4.0,73,0.00,,,0.06,0.000000,,2013-08-19 05:11:00,
2013-08-18 23:52:00,52.0,43.0,-100.00,ENE,70,2.0,4.0,70,0.00,,,0.06,0.000000,,2013-08-19 05:52:00,